sensor_id;sensor_type;location;lat;lon;timestamp;temperature;humidity
21259;DHT22;10787;53.364;-1.480;2022-12-22T00:00:53;4.00;99.90
21259;DHT22;10787;53.364;-1.480;2022-12-22T00:03:38;3.90;99.90
21259;DHT22;10787;53.364;-1.480;2022-12-22T00:06:22;3.90;99.90
21259;DHT22;10787;53.364;-1.480;2022-12-22T00:09:07;3.90;99.90
21259;DHT22;10787;53.364;-1.480;2022-12-22T00:11:51;3.80;99.90
21259;DHT22;10787;53.364;-1.480;2022-12-22T00:14:35;3.80;99.90
21259;DHT22;10787;53.364;-1.480;2022-12-22T00:17:27;3.80;99.90
21259;DHT22;10787;53.364;-1.480;2022-12-22T00:20:17;3.70;99.90
21259;DHT22;10787;53.364;-1.480;2022-12-22T00:23:04;3.70;99.90
21259;DHT22;10787;53.364;-1.480;2022-12-22T00:25:48;3.70;99.90
21259;DHT22;10787;53.364;-1.480;2022-12-22T00:28:35;3.60;99.90
21259;DHT22;10787;53.364;-1.480;2022-12-22T00:31:21;3.70;99.90
21259;DHT22;10787;53.364;-1.480;2022-12-22T00:34:12;3.70;99.90
21259;DHT22;10787;53.364;-1.480;2022-12-22T00:36:57;3.70;99.90
21259;DHT22;10787;53.364;-1.480;2022-12-22T00:39:41;3.70;99.90
21259;DHT22;10787;53.364;-1.480;2022-12-22T00:42:25;3.70;99.90
21259;DHT22;10787;53.364;-1.480;2022-12-22T00:45:10;3.80;99.90
21259;DHT22;10787;53.364;-1.480;2022-12-22T00:47:54;3.80;99.90
21259;DHT22;10787;53.364;-1.480;2022-12-22T00:50:39;3.80;99.90
21259;DHT22;10787;53.364;-1.480;2022-12-22T00:53:24;3.90;99.90
21259;DHT22;10787;53.364;-1.480;2022-12-22T00:56:09;3.90;99.90
21259;DHT22;10787;53.364;-1.480;2022-12-22T00:58:55;3.90;99.90
21259;DHT22;10787;53.364;-1.480;2022-12-22T01:01:40;3.80;99.90
21259;DHT22;10787;53.364;-1.480;2022-12-22T01:04:24;3.90;99.90
21259;DHT22;10787;53.364;-1.480;2022-12-22T01:07:11;3.90;99.90
21259;DHT22;10787;53.364;-1.480;2022-12-22T01:09:56;3.90;99.90
21259;DHT22;10787;53.364;-1.480;2022-12-22T01:12:41;3.90;99.90
21259;DHT22;10787;53.364;-1.480;2022-12-22T01:15:26;3.80;99.90
21259;DHT22;10787;53.364;-1.480;2022-12-22T01:18:11;3.80;99.90
21259;DHT22;10787;53.364;-1.480;2022-12-22T01:20:56;3.80;99.90
21259;DHT22;10787;53.364;-1.480;2022-12-22T01:23:41;3.90;99.90
21259;DHT22;10787;53.364;-1.480;2022-12-22T01:26:26;3.90;99.90
21259;DHT22;10787;53.364;-1.480;2022-12-22T01:29:10;3.90;99.90
21259;DHT22;10787;53.364;-1.480;2022-12-22T01:31:55;3.90;99.90
21259;DHT22;10787;53.364;-1.480;2022-12-22T01:34:40;3.90;99.90
21259;DHT22;10787;53.364;-1.480;2022-12-22T01:37:24;3.90;99.90
21259;DHT22;10787;53.364;-1.480;2022-12-22T01:40:21;3.80;99.90
21259;DHT22;10787;53.364;-1.480;2022-12-22T01:43:35;3.80;99.90
21259;DHT22;10787;53.364;-1.480;2022-12-22T01:47:17;3.80;99.90
21259;DHT22;10787;53.364;-1.480;2022-12-22T01:49:39;3.80;99.90
21259;DHT22;10787;53.364;-1.480;2022-12-22T01:52:35;3.80;99.90
21259;DHT22;10787;53.364;-1.480;2022-12-22T01:55:22;3.70;99.90
21259;DHT22;10787;53.364;-1.480;2022-12-22T01:58:20;3.70;99.90
21259;DHT22;10787;53.364;-1.480;2022-12-22T02:01:09;3.70;99.90
21259;DHT22;10787;53.364;-1.480;2022-12-22T02:03:54;3.60;99.90
21259;DHT22;10787;53.364;-1.480;2022-12-22T02:06:41;3.60;99.90
21259;DHT22;10787;53.364;-1.480;2022-12-22T02:15:38;3.50;99.90
21259;DHT22;10787;53.364;-1.480;2022-12-22T02:18:55;3.50;99.90
21259;DHT22;10787;53.364;-1.480;2022-12-22T02:24:50;3.50;99.90
21259;DHT22;10787;53.364;-1.480;2022-12-22T02:27:38;3.50;99.90
21259;DHT22;10787;53.364;-1.480;2022-12-22T02:30:24;3.50;99.90
21259;DHT22;10787;53.364;-1.480;2022-12-22T02:33:11;3.50;99.90
21259;DHT22;10787;53.364;-1.480;2022-12-22T02:36:04;3.50;99.90
21259;DHT22;10787;53.364;-1.480;2022-12-22T02:43:00;3.50;99.90
21259;DHT22;10787;53.364;-1.480;2022-12-22T02:49:00;3.50;99.90
21259;DHT22;10787;53.364;-1.480;2022-12-22T02:52:08;3.50;99.90
21259;DHT22;10787;53.364;-1.480;2022-12-22T02:54:54;3.50;99.90
21259;DHT22;10787;53.364;-1.480;2022-12-22T02:57:38;3.50;99.90
21259;DHT22;10787;53.364;-1.480;2022-12-22T03:00:23;3.50;99.90
21259;DHT22;10787;53.364;-1.480;2022-12-22T03:03:08;3.50;99.90
21259;DHT22;10787;53.364;-1.480;2022-12-22T03:05:53;3.40;99.90
21259;DHT22;10787;53.364;-1.480;2022-12-22T03:08:37;3.40;99.90
21259;DHT22;10787;53.364;-1.480;2022-12-22T03:11:22;3.50;99.90
21259;DHT22;10787;53.364;-1.480;2022-12-22T03:14:06;3.50;99.90
21259;DHT22;10787;53.364;-1.480;2022-12-22T03:16:50;3.50;99.90
21259;DHT22;10787;53.364;-1.480;2022-12-22T03:19:35;3.50;99.90
21259;DHT22;10787;53.364;-1.480;2022-12-22T03:22:20;3.60;99.90
21259;DHT22;10787;53.364;-1.480;2022-12-22T03:25:05;3.50;99.90
21259;DHT22;10787;53.364;-1.480;2022-12-22T03:27:49;3.50;99.90
21259;DHT22;10787;53.364;-1.480;2022-12-22T03:30:15;3.50;99.90
21259;DHT22;10787;53.364;-1.480;2022-12-22T03:32:41;3.50;99.90
21259;DHT22;10787;53.364;-1.480;2022-12-22T03:35:07;3.40;99.90
21259;DHT22;10787;53.364;-1.480;2022-12-22T03:37:33;3.40;99.90
21259;DHT22;10787;53.364;-1.480;2022-12-22T03:39:59;3.40;99.90
21259;DHT22;10787;53.364;-1.480;2022-12-22T03:42:25;3.40;99.90
21259;DHT22;10787;53.364;-1.480;2022-12-22T03:45:09;3.40;99.90
21259;DHT22;10787;53.364;-1.480;2022-12-22T03:47:54;3.40;99.90
21259;DHT22;10787;53.364;-1.480;2022-12-22T03:50:20;3.30;99.90
21259;DHT22;10787;53.364;-1.480;2022-12-22T03:52:45;3.40;99.90
21259;DHT22;10787;53.364;-1.480;2022-12-22T03:55:11;3.30;99.90
21259;DHT22;10787;53.364;-1.480;2022-12-22T03:57:37;3.40;99.90
21259;DHT22;10787;53.364;-1.480;2022-12-22T04:00:03;3.40;99.90
21259;DHT22;10787;53.364;-1.480;2022-12-22T04:02:29;3.40;99.90
21259;DHT22;10787;53.364;-1.480;2022-12-22T04:04:55;3.50;99.90
21259;DHT22;10787;53.364;-1.480;2022-12-22T04:07:21;3.40;99.90
21259;DHT22;10787;53.364;-1.480;2022-12-22T04:09:48;3.40;99.90
21259;DHT22;10787;53.364;-1.480;2022-12-22T04:12:32;3.40;99.90
21259;DHT22;10787;53.364;-1.480;2022-12-22T04:15:17;3.30;99.90
21259;DHT22;10787;53.364;-1.480;2022-12-22T04:17:42;3.30;99.90
21259;DHT22;10787;53.364;-1.480;2022-12-22T04:20:09;3.30;99.90
21259;DHT22;10787;53.364;-1.480;2022-12-22T04:22:35;3.30;99.90
21259;DHT22;10787;53.364;-1.480;2022-12-22T04:25:01;3.30;99.90
21259;DHT22;10787;53.364;-1.480;2022-12-22T04:27:27;3.30;99.90
21259;DHT22;10787;53.364;-1.480;2022-12-22T04:29:52;3.30;99.90
21259;DHT22;10787;53.364;-1.480;2022-12-22T04:32:18;3.30;99.90
21259;DHT22;10787;53.364;-1.480;2022-12-22T04:34:44;3.30;99.90
21259;DHT22;10787;53.364;-1.480;2022-12-22T04:37:10;3.20;99.90
21259;DHT22;10787;53.364;-1.480;2022-12-22T04:39:36;3.20;99.90
21259;DHT22;10787;53.364;-1.480;2022-12-22T04:42:02;3.20;99.90
21259;DHT22;10787;53.364;-1.480;2022-12-22T04:44:28;3.20;99.90
21259;DHT22;10787;53.364;-1.480;2022-12-22T04:46:54;3.30;99.90
21259;DHT22;10787;53.364;-1.480;2022-12-22T04:49:20;3.30;99.90
21259;DHT22;10787;53.364;-1.480;2022-12-22T04:51:46;3.30;99.90
21259;DHT22;10787;53.364;-1.480;2022-12-22T04:54:12;3.30;99.90
21259;DHT22;10787;53.364;-1.480;2022-12-22T04:56:40;3.30;99.90
21259;DHT22;10787;53.364;-1.480;2022-12-22T04:59:05;3.20;99.90
21259;DHT22;10787;53.364;-1.480;2022-12-22T05:01:31;3.20;99.90
21259;DHT22;10787;53.364;-1.480;2022-12-22T05:03:58;3.20;99.90
21259;DHT22;10787;53.364;-1.480;2022-12-22T05:06:24;3.10;99.90
21259;DHT22;10787;53.364;-1.480;2022-12-22T05:08:49;3.10;99.90
21259;DHT22;10787;53.364;-1.480;2022-12-22T05:11:15;3.10;99.90
21259;DHT22;10787;53.364;-1.480;2022-12-22T05:13:41;3.20;99.90
21259;DHT22;10787;53.364;-1.480;2022-12-22T05:16:09;3.20;99.90
21259;DHT22;10787;53.364;-1.480;2022-12-22T05:18:36;3.20;99.90
21259;DHT22;10787;53.364;-1.480;2022-12-22T05:21:07;3.30;99.90
21259;DHT22;10787;53.364;-1.480;2022-12-22T05:23:33;3.30;99.90
21259;DHT22;10787;53.364;-1.480;2022-12-22T05:26:00;3.40;99.90
21259;DHT22;10787;53.364;-1.480;2022-12-22T05:28:26;3.40;99.90
21259;DHT22;10787;53.364;-1.480;2022-12-22T05:30:52;3.40;99.90
21259;DHT22;10787;53.364;-1.480;2022-12-22T05:33:19;3.40;99.90
21259;DHT22;10787;53.364;-1.480;2022-12-22T05:35:44;3.40;99.90
21259;DHT22;10787;53.364;-1.480;2022-12-22T05:38:10;3.50;99.90
21259;DHT22;10787;53.364;-1.480;2022-12-22T05:40:36;3.50;99.90
21259;DHT22;10787;53.364;-1.480;2022-12-22T05:43:02;3.50;99.90
21259;DHT22;10787;53.364;-1.480;2022-12-22T05:45:27;3.50;99.90
21259;DHT22;10787;53.364;-1.480;2022-12-22T05:47:53;3.50;99.90
21259;DHT22;10787;53.364;-1.480;2022-12-22T05:50:21;3.60;99.90
21259;DHT22;10787;53.364;-1.480;2022-12-22T05:52:47;3.60;99.90
21259;DHT22;10787;53.364;-1.480;2022-12-22T05:55:14;3.70;99.90
21259;DHT22;10787;53.364;-1.480;2022-12-22T05:57:40;3.80;99.90
21259;DHT22;10787;53.364;-1.480;2022-12-22T06:00:11;3.90;99.90
21259;DHT22;10787;53.364;-1.480;2022-12-22T06:02:39;3.90;99.90
21259;DHT22;10787;53.364;-1.480;2022-12-22T06:05:05;4.00;99.90
21259;DHT22;10787;53.364;-1.480;2022-12-22T06:07:31;4.10;99.90
21259;DHT22;10787;53.364;-1.480;2022-12-22T06:09:57;4.20;99.90
21259;DHT22;10787;53.364;-1.480;2022-12-22T06:12:23;4.20;99.90
21259;DHT22;10787;53.364;-1.480;2022-12-22T06:14:49;4.20;99.90
21259;DHT22;10787;53.364;-1.480;2022-12-22T06:17:15;4.20;99.90
21259;DHT22;10787;53.364;-1.480;2022-12-22T06:19:41;4.30;99.90
21259;DHT22;10787;53.364;-1.480;2022-12-22T06:22:07;4.40;99.90
21259;DHT22;10787;53.364;-1.480;2022-12-22T06:24:33;4.40;99.90
21259;DHT22;10787;53.364;-1.480;2022-12-22T06:26:58;4.50;99.90
21259;DHT22;10787;53.364;-1.480;2022-12-22T06:29:24;4.50;99.90
21259;DHT22;10787;53.364;-1.480;2022-12-22T06:31:50;4.50;99.90
21259;DHT22;10787;53.364;-1.480;2022-12-22T06:34:16;4.60;99.90
21259;DHT22;10787;53.364;-1.480;2022-12-22T06:36:45;4.60;99.90
21259;DHT22;10787;53.364;-1.480;2022-12-22T06:39:13;4.70;99.90
21259;DHT22;10787;53.364;-1.480;2022-12-22T06:41:40;4.70;99.90
21259;DHT22;10787;53.364;-1.480;2022-12-22T06:44:24;4.70;99.90
21259;DHT22;10787;53.364;-1.480;2022-12-22T06:46:51;4.80;99.90
21259;DHT22;10787;53.364;-1.480;2022-12-22T06:49:17;4.90;99.90
21259;DHT22;10787;53.364;-1.480;2022-12-22T06:51:43;4.90;99.90
21259;DHT22;10787;53.364;-1.480;2022-12-22T06:54:08;5.00;99.90
21259;DHT22;10787;53.364;-1.480;2022-12-22T06:56:34;5.10;99.90
21259;DHT22;10787;53.364;-1.480;2022-12-22T06:59:00;5.10;99.90
21259;DHT22;10787;53.364;-1.480;2022-12-22T07:01:26;5.10;99.90
21259;DHT22;10787;53.364;-1.480;2022-12-22T07:03:52;5.20;99.90
21259;DHT22;10787;53.364;-1.480;2022-12-22T07:06:18;5.20;99.90
21259;DHT22;10787;53.364;-1.480;2022-12-22T07:08:45;5.20;99.90
21259;DHT22;10787;53.364;-1.480;2022-12-22T07:11:11;5.20;99.90
21259;DHT22;10787;53.364;-1.480;2022-12-22T07:13:37;5.20;99.90
21259;DHT22;10787;53.364;-1.480;2022-12-22T07:16:04;5.20;99.90
21259;DHT22;10787;53.364;-1.480;2022-12-22T07:18:33;5.20;99.90
21259;DHT22;10787;53.364;-1.480;2022-12-22T07:21:01;5.20;99.90
21259;DHT22;10787;53.364;-1.480;2022-12-22T07:23:28;5.20;99.90
21259;DHT22;10787;53.364;-1.480;2022-12-22T07:25:54;5.30;99.90
21259;DHT22;10787;53.364;-1.480;2022-12-22T07:28:21;5.40;99.90
21259;DHT22;10787;53.364;-1.480;2022-12-22T07:30:49;5.50;99.90
21259;DHT22;10787;53.364;-1.480;2022-12-22T07:33:15;5.60;99.90
21259;DHT22;10787;53.364;-1.480;2022-12-22T07:35:41;5.70;99.90
21259;DHT22;10787;53.364;-1.480;2022-12-22T07:38:08;5.80;99.90
21259;DHT22;10787;53.364;-1.480;2022-12-22T07:40:34;5.80;99.90
21259;DHT22;10787;53.364;-1.480;2022-12-22T07:43:00;5.80;99.90
21259;DHT22;10787;53.364;-1.480;2022-12-22T07:45:28;5.80;99.90
21259;DHT22;10787;53.364;-1.480;2022-12-22T07:48:00;5.80;99.90
21259;DHT22;10787;53.364;-1.480;2022-12-22T07:50:27;5.80;99.90
21259;DHT22;10787;53.364;-1.480;2022-12-22T07:52:57;5.80;99.90
21259;DHT22;10787;53.364;-1.480;2022-12-22T07:55:24;5.90;99.90
21259;DHT22;10787;53.364;-1.480;2022-12-22T07:57:51;5.90;99.90
21259;DHT22;10787;53.364;-1.480;2022-12-22T08:00:18;5.90;99.90
21259;DHT22;10787;53.364;-1.480;2022-12-22T08:02:53;5.90;99.90
21259;DHT22;10787;53.364;-1.480;2022-12-22T08:05:21;6.00;99.90
21259;DHT22;10787;53.364;-1.480;2022-12-22T08:07:49;6.00;99.90
21259;DHT22;10787;53.364;-1.480;2022-12-22T08:10:16;6.00;99.90
21259;DHT22;10787;53.364;-1.480;2022-12-22T08:12:42;6.00;99.90
21259;DHT22;10787;53.364;-1.480;2022-12-22T08:15:08;6.00;99.90
21259;DHT22;10787;53.364;-1.480;2022-12-22T08:17:35;6.10;99.90
21259;DHT22;10787;53.364;-1.480;2022-12-22T08:20:01;6.10;99.90
21259;DHT22;10787;53.364;-1.480;2022-12-22T08:22:26;6.10;99.90
21259;DHT22;10787;53.364;-1.480;2022-12-22T08:24:55;6.10;99.90
21259;DHT22;10787;53.364;-1.480;2022-12-22T08:27:30;6.00;99.90
21259;DHT22;10787;53.364;-1.480;2022-12-22T08:29:59;6.00;99.90
21259;DHT22;10787;53.364;-1.480;2022-12-22T08:32:25;6.00;99.90
21259;DHT22;10787;53.364;-1.480;2022-12-22T08:34:52;6.00;99.90
21259;DHT22;10787;53.364;-1.480;2022-12-22T08:37:22;6.00;99.90
21259;DHT22;10787;53.364;-1.480;2022-12-22T08:39:52;6.00;99.90
21259;DHT22;10787;53.364;-1.480;2022-12-22T08:42:21;6.00;99.90
21259;DHT22;10787;53.364;-1.480;2022-12-22T08:44:48;6.00;99.90
21259;DHT22;10787;53.364;-1.480;2022-12-22T08:47:19;6.00;99.90
21259;DHT22;10787;53.364;-1.480;2022-12-22T08:49:46;6.00;99.90
21259;DHT22;10787;53.364;-1.480;2022-12-22T08:52:12;6.10;99.90
21259;DHT22;10787;53.364;-1.480;2022-12-22T08:54:38;6.10;99.90
21259;DHT22;10787;53.364;-1.480;2022-12-22T08:57:04;6.10;99.90
21259;DHT22;10787;53.364;-1.480;2022-12-22T08:59:30;6.10;99.90
21259;DHT22;10787;53.364;-1.480;2022-12-22T09:01:56;6.20;99.90
21259;DHT22;10787;53.364;-1.480;2022-12-22T09:04:23;6.20;99.90
21259;DHT22;10787;53.364;-1.480;2022-12-22T09:06:51;6.20;99.90
21259;DHT22;10787;53.364;-1.480;2022-12-22T09:09:18;6.20;99.90
21259;DHT22;10787;53.364;-1.480;2022-12-22T09:11:44;6.20;99.90
21259;DHT22;10787;53.364;-1.480;2022-12-22T09:14:11;6.30;99.90
21259;DHT22;10787;53.364;-1.480;2022-12-22T09:16:37;6.20;99.90
21259;DHT22;10787;53.364;-1.480;2022-12-22T09:19:03;6.30;99.90
21259;DHT22;10787;53.364;-1.480;2022-12-22T09:21:31;6.30;99.90
21259;DHT22;10787;53.364;-1.480;2022-12-22T09:23:57;6.30;99.90
21259;DHT22;10787;53.364;-1.480;2022-12-22T09:26:26;6.30;99.90
21259;DHT22;10787;53.364;-1.480;2022-12-22T09:28:52;6.40;99.90
21259;DHT22;10787;53.364;-1.480;2022-12-22T09:31:20;6.40;99.90
21259;DHT22;10787;53.364;-1.480;2022-12-22T09:33:46;6.40;99.90
21259;DHT22;10787;53.364;-1.480;2022-12-22T09:36:15;6.50;99.90
21259;DHT22;10787;53.364;-1.480;2022-12-22T09:38:41;6.50;99.90
21259;DHT22;10787;53.364;-1.480;2022-12-22T09:43:39;6.60;99.90
21259;DHT22;10787;53.364;-1.480;2022-12-22T09:46:28;6.60;99.90
21259;DHT22;10787;53.364;-1.480;2022-12-22T09:48:54;6.60;99.90
21259;DHT22;10787;53.364;-1.480;2022-12-22T09:51:21;6.60;99.90
21259;DHT22;10787;53.364;-1.480;2022-12-22T09:53:53;6.70;99.90
21259;DHT22;10787;53.364;-1.480;2022-12-22T09:56:20;6.70;99.90
21259;DHT22;10787;53.364;-1.480;2022-12-22T09:58:47;6.80;99.90
21259;DHT22;10787;53.364;-1.480;2022-12-22T10:09:21;7.10;99.90
21259;DHT22;10787;53.364;-1.480;2022-12-22T10:11:55;7.10;99.90
21259;DHT22;10787;53.364;-1.480;2022-12-22T10:14:26;7.20;99.90
21259;DHT22;10787;53.364;-1.480;2022-12-22T10:19:42;7.30;99.90
21259;DHT22;10787;53.364;-1.480;2022-12-22T10:22:20;7.30;99.90
21259;DHT22;10787;53.364;-1.480;2022-12-22T10:24:47;7.40;99.90
21259;DHT22;10787;53.364;-1.480;2022-12-22T10:27:14;7.40;99.90
21259;DHT22;10787;53.364;-1.480;2022-12-22T10:29:40;7.40;99.90
21259;DHT22;10787;53.364;-1.480;2022-12-22T10:32:15;7.40;99.90
21259;DHT22;10787;53.364;-1.480;2022-12-22T10:35:17;7.40;99.90
21259;DHT22;10787;53.364;-1.480;2022-12-22T10:37:43;7.40;99.90
21259;DHT22;10787;53.364;-1.480;2022-12-22T10:40:27;7.40;99.90
21259;DHT22;10787;53.364;-1.480;2022-12-22T10:42:55;7.40;99.90
21259;DHT22;10787;53.364;-1.480;2022-12-22T10:45:24;7.40;99.90
21259;DHT22;10787;53.364;-1.480;2022-12-22T10:47:53;7.40;99.90
21259;DHT22;10787;53.364;-1.480;2022-12-22T10:50:20;7.40;99.90
21259;DHT22;10787;53.364;-1.480;2022-12-22T10:52:56;7.40;99.90
21259;DHT22;10787;53.364;-1.480;2022-12-22T10:55:28;7.40;99.90
21259;DHT22;10787;53.364;-1.480;2022-12-22T10:58:16;7.40;99.90
21259;DHT22;10787;53.364;-1.480;2022-12-22T11:00:42;7.40;99.90
21259;DHT22;10787;53.364;-1.480;2022-12-22T11:03:11;7.50;99.90
21259;DHT22;10787;53.364;-1.480;2022-12-22T11:05:40;7.50;99.90
21259;DHT22;10787;53.364;-1.480;2022-12-22T11:08:18;7.50;99.90
21259;DHT22;10787;53.364;-1.480;2022-12-22T11:11:04;7.60;99.90
21259;DHT22;10787;53.364;-1.480;2022-12-22T11:16:48;7.60;99.90
21259;DHT22;10787;53.364;-1.480;2022-12-22T11:22:17;7.60;99.90
21259;DHT22;10787;53.364;-1.480;2022-12-22T11:33:50;7.70;99.90
21259;DHT22;10787;53.364;-1.480;2022-12-22T11:39:52;7.80;99.90
21259;DHT22;10787;53.364;-1.480;2022-12-22T11:50:45;8.10;99.90
21259;DHT22;10787;53.364;-1.480;2022-12-22T11:56:11;8.20;99.90
21259;DHT22;10787;53.364;-1.480;2022-12-22T12:10:23;8.20;99.90
21259;DHT22;10787;53.364;-1.480;2022-12-22T12:12:52;8.20;99.90
21259;DHT22;10787;53.364;-1.480;2022-12-22T12:20:40;8.20;99.90
21259;DHT22;10787;53.364;-1.480;2022-12-22T12:23:52;8.30;99.90
21259;DHT22;10787;53.364;-1.480;2022-12-22T12:26:26;8.30;99.90
21259;DHT22;10787;53.364;-1.480;2022-12-22T12:32:08;8.30;99.90
21259;DHT22;10787;53.364;-1.480;2022-12-22T12:34:33;8.30;99.90
21259;DHT22;10787;53.364;-1.480;2022-12-22T12:37:17;8.30;99.90
21259;DHT22;10787;53.364;-1.480;2022-12-22T12:40:26;8.20;99.90
21259;DHT22;10787;53.364;-1.480;2022-12-22T12:42:53;8.20;99.90
21259;DHT22;10787;53.364;-1.480;2022-12-22T12:45:44;8.20;99.90
21259;DHT22;10787;53.364;-1.480;2022-12-22T12:50:51;8.20;99.90
21259;DHT22;10787;53.364;-1.480;2022-12-22T12:53:37;8.30;99.90
21259;DHT22;10787;53.364;-1.480;2022-12-22T12:56:08;8.40;99.90
21259;DHT22;10787;53.364;-1.480;2022-12-22T13:01:10;8.50;99.90
21259;DHT22;10787;53.364;-1.480;2022-12-22T13:03:41;8.50;99.90
21259;DHT22;10787;53.364;-1.480;2022-12-22T13:06:09;8.50;99.90
21259;DHT22;10787;53.364;-1.480;2022-12-22T13:23:47;8.30;99.90
21259;DHT22;10787;53.364;-1.480;2022-12-22T13:26:20;8.30;99.90
21259;DHT22;10787;53.364;-1.480;2022-12-22T13:28:56;8.20;99.90
21259;DHT22;10787;53.364;-1.480;2022-12-22T13:36:32;8.20;99.90
21259;DHT22;10787;53.364;-1.480;2022-12-22T13:39:19;8.20;99.90
21259;DHT22;10787;53.364;-1.480;2022-12-22T13:41:47;8.20;99.90
21259;DHT22;10787;53.364;-1.480;2022-12-22T13:44:32;8.20;99.90
21259;DHT22;10787;53.364;-1.480;2022-12-22T13:47:04;8.20;99.90
21259;DHT22;10787;53.364;-1.480;2022-12-22T13:49:31;8.20;99.90
21259;DHT22;10787;53.364;-1.480;2022-12-22T13:51:59;8.20;99.90
21259;DHT22;10787;53.364;-1.480;2022-12-22T13:54:33;8.10;99.90
21259;DHT22;10787;53.364;-1.480;2022-12-22T13:57:02;8.10;99.90
21259;DHT22;10787;53.364;-1.480;2022-12-22T13:59:39;8.10;99.90
21259;DHT22;10787;53.364;-1.480;2022-12-22T14:04:40;8.00;99.90
21259;DHT22;10787;53.364;-1.480;2022-12-22T14:07:15;8.00;99.90
21259;DHT22;10787;53.364;-1.480;2022-12-22T14:09:48;8.00;99.90
21259;DHT22;10787;53.364;-1.480;2022-12-22T14:12:20;8.00;99.90
21259;DHT22;10787;53.364;-1.480;2022-12-22T14:14:49;8.00;99.90
21259;DHT22;10787;53.364;-1.480;2022-12-22T14:17:35;8.00;99.90
21259;DHT22;10787;53.364;-1.480;2022-12-22T14:22:46;7.90;99.90
21259;DHT22;10787;53.364;-1.480;2022-12-22T14:25:18;7.90;99.90
21259;DHT22;10787;53.364;-1.480;2022-12-22T14:27:50;7.90;99.90
21259;DHT22;10787;53.364;-1.480;2022-12-22T14:32:48;7.90;99.90
21259;DHT22;10787;53.364;-1.480;2022-12-22T14:37:50;7.90;99.90
21259;DHT22;10787;53.364;-1.480;2022-12-22T14:40:32;7.90;99.90
21259;DHT22;10787;53.364;-1.480;2022-12-22T14:43:02;7.90;99.90
21259;DHT22;10787;53.364;-1.480;2022-12-22T14:45:28;7.90;99.90
21259;DHT22;10787;53.364;-1.480;2022-12-22T14:47:55;7.80;99.90
21259;DHT22;10787;53.364;-1.480;2022-12-22T14:50:24;7.80;99.90
21259;DHT22;10787;53.364;-1.480;2022-12-22T14:52:55;7.80;99.90
21259;DHT22;10787;53.364;-1.480;2022-12-22T14:55:37;7.80;99.90
21259;DHT22;10787;53.364;-1.480;2022-12-22T15:00:33;7.70;99.90
21259;DHT22;10787;53.364;-1.480;2022-12-22T15:05:46;7.70;99.90
21259;DHT22;10787;53.364;-1.480;2022-12-22T15:08:37;7.70;99.90
21259;DHT22;10787;53.364;-1.480;2022-12-22T15:11:15;7.70;99.90
21259;DHT22;10787;53.364;-1.480;2022-12-22T15:13:42;7.70;99.90
21259;DHT22;10787;53.364;-1.480;2022-12-22T15:16:13;7.80;99.90
21259;DHT22;10787;53.364;-1.480;2022-12-22T15:18:39;7.80;99.90
21259;DHT22;10787;53.364;-1.480;2022-12-22T15:21:05;7.80;99.90
21259;DHT22;10787;53.364;-1.480;2022-12-22T15:23:33;7.70;99.90
21259;DHT22;10787;53.364;-1.480;2022-12-22T15:25:58;7.70;99.90
21259;DHT22;10787;53.364;-1.480;2022-12-22T15:28:24;7.70;99.90
21259;DHT22;10787;53.364;-1.480;2022-12-22T15:30:50;7.70;99.90
21259;DHT22;10787;53.364;-1.480;2022-12-22T15:33:17;7.70;99.90
21259;DHT22;10787;53.364;-1.480;2022-12-22T15:35:44;7.70;99.90
21259;DHT22;10787;53.364;-1.480;2022-12-22T15:38:18;7.70;99.90
21259;DHT22;10787;53.364;-1.480;2022-12-22T15:40:45;7.60;99.90
21259;DHT22;10787;53.364;-1.480;2022-12-22T15:43:11;7.60;99.90
21259;DHT22;10787;53.364;-1.480;2022-12-22T15:45:38;7.60;99.90
21259;DHT22;10787;53.364;-1.480;2022-12-22T15:48:09;7.60;99.90
21259;DHT22;10787;53.364;-1.480;2022-12-22T15:50:39;7.60;99.90
21259;DHT22;10787;53.364;-1.480;2022-12-22T15:53:06;7.60;99.90
21259;DHT22;10787;53.364;-1.480;2022-12-22T15:55:40;7.60;99.90
21259;DHT22;10787;53.364;-1.480;2022-12-22T15:58:09;7.60;99.90
21259;DHT22;10787;53.364;-1.480;2022-12-22T16:00:36;7.60;99.90
21259;DHT22;10787;53.364;-1.480;2022-12-22T16:03:03;7.50;99.90
21259;DHT22;10787;53.364;-1.480;2022-12-22T16:05:30;7.50;99.90
21259;DHT22;10787;53.364;-1.480;2022-12-22T16:07:56;7.50;99.90
21259;DHT22;10787;53.364;-1.480;2022-12-22T16:10:26;7.50;99.90
21259;DHT22;10787;53.364;-1.480;2022-12-22T16:12:54;7.60;99.90
21259;DHT22;10787;53.364;-1.480;2022-12-22T16:15:30;7.60;99.90
21259;DHT22;10787;53.364;-1.480;2022-12-22T16:17:57;7.60;99.90
21259;DHT22;10787;53.364;-1.480;2022-12-22T16:20:24;7.60;99.90
21259;DHT22;10787;53.364;-1.480;2022-12-22T16:22:52;7.50;99.90
21259;DHT22;10787;53.364;-1.480;2022-12-22T16:25:21;7.50;99.90
21259;DHT22;10787;53.364;-1.480;2022-12-22T16:27:49;7.50;99.90
21259;DHT22;10787;53.364;-1.480;2022-12-22T16:30:23;7.40;99.90
21259;DHT22;10787;53.364;-1.480;2022-12-22T16:32:49;7.40;99.90
21259;DHT22;10787;53.364;-1.480;2022-12-22T16:35:17;7.40;99.90
21259;DHT22;10787;53.364;-1.480;2022-12-22T16:37:44;7.40;99.90
21259;DHT22;10787;53.364;-1.480;2022-12-22T16:40:11;7.30;99.90
21259;DHT22;10787;53.364;-1.480;2022-12-22T16:42:39;7.30;99.90
21259;DHT22;10787;53.364;-1.480;2022-12-22T16:45:18;7.30;99.90
21259;DHT22;10787;53.364;-1.480;2022-12-22T16:47:46;7.30;99.90
21259;DHT22;10787;53.364;-1.480;2022-12-22T16:50:21;7.20;99.90
21259;DHT22;10787;53.364;-1.480;2022-12-22T16:52:48;7.30;99.90
21259;DHT22;10787;53.364;-1.480;2022-12-22T16:55:16;7.30;99.90
21259;DHT22;10787;53.364;-1.480;2022-12-22T16:57:43;7.30;99.90
21259;DHT22;10787;53.364;-1.480;2022-12-22T17:00:18;7.30;99.90
21259;DHT22;10787;53.364;-1.480;2022-12-22T17:02:47;7.30;99.90
21259;DHT22;10787;53.364;-1.480;2022-12-22T17:05:42;7.30;99.90
21259;DHT22;10787;53.364;-1.480;2022-12-22T17:08:18;7.30;99.90
21259;DHT22;10787;53.364;-1.480;2022-12-22T17:10:46;7.30;99.90
21259;DHT22;10787;53.364;-1.480;2022-12-22T17:13:12;7.20;99.90
21259;DHT22;10787;53.364;-1.480;2022-12-22T17:15:38;7.20;99.90
21259;DHT22;10787;53.364;-1.480;2022-12-22T17:18:12;7.20;99.90
21259;DHT22;10787;53.364;-1.480;2022-12-22T17:20:39;7.20;99.90
21259;DHT22;10787;53.364;-1.480;2022-12-22T17:23:05;7.20;99.90
21259;DHT22;10787;53.364;-1.480;2022-12-22T17:25:31;7.20;99.90
21259;DHT22;10787;53.364;-1.480;2022-12-22T17:28:00;7.20;99.90
21259;DHT22;10787;53.364;-1.480;2022-12-22T17:30:27;7.20;99.90
21259;DHT22;10787;53.364;-1.480;2022-12-22T17:32:53;7.20;99.90
21259;DHT22;10787;53.364;-1.480;2022-12-22T17:35:24;7.20;99.90
21259;DHT22;10787;53.364;-1.480;2022-12-22T17:37:50;7.20;99.90
21259;DHT22;10787;53.364;-1.480;2022-12-22T17:40:22;7.10;99.90
21259;DHT22;10787;53.364;-1.480;2022-12-22T17:42:48;7.20;99.90
21259;DHT22;10787;53.364;-1.480;2022-12-22T17:45:15;7.20;99.90
21259;DHT22;10787;53.364;-1.480;2022-12-22T17:47:42;7.20;99.90
21259;DHT22;10787;53.364;-1.480;2022-12-22T17:50:13;7.20;99.90
21259;DHT22;10787;53.364;-1.480;2022-12-22T17:52:41;7.20;99.90
21259;DHT22;10787;53.364;-1.480;2022-12-22T17:55:28;7.20;99.90
21259;DHT22;10787;53.364;-1.480;2022-12-22T17:57:55;7.20;99.90
21259;DHT22;10787;53.364;-1.480;2022-12-22T18:00:28;7.20;99.90
21259;DHT22;10787;53.364;-1.480;2022-12-22T18:02:54;7.20;99.90
21259;DHT22;10787;53.364;-1.480;2022-12-22T18:05:27;7.20;99.90